createdAt,value
2022-12-07T00:01:49.044Z,63.60
2022-12-07T00:04:20.441Z,63.60
2022-12-07T00:06:53.997Z,63.70
2022-12-07T00:09:23.362Z,63.70
2022-12-07T00:11:53.374Z,63.80
2022-12-07T00:14:22.484Z,63.80
2022-12-07T00:16:52.965Z,63.80
2022-12-07T00:19:23.002Z,63.70
2022-12-07T00:21:51.597Z,63.50
2022-12-07T00:24:20.127Z,63.60
2022-12-07T00:26:48.725Z,63.60
2022-12-07T00:29:20.307Z,63.70
2022-12-07T00:31:49.463Z,63.80
2022-12-07T00:34:20.822Z,63.70
2022-12-07T00:36:51.828Z,63.60
2022-12-07T00:39:20.647Z,63.70
2022-12-07T00:41:49.324Z,63.70
2022-12-07T00:44:17.865Z,63.80
2022-12-07T00:46:47.540Z,63.70
2022-12-07T00:49:16.161Z,63.70
2022-12-07T00:51:44.759Z,63.70
2022-12-07T00:54:14.775Z,63.60
2022-12-07T00:56:43.607Z,63.70
2022-12-07T00:59:16.129Z,63.60
2022-12-07T01:01:44.933Z,63.60
2022-12-07T01:04:13.542Z,63.30
2022-12-07T01:06:42.417Z,63.30
2022-12-07T01:09:11.126Z,63.30
2022-12-07T01:11:41.118Z,63.50
2022-12-07T01:14:11.018Z,63.40
2022-12-07T01:16:41.464Z,63.50
2022-12-07T01:19:10.168Z,63.60
2022-12-07T01:21:40.818Z,63.70
2022-12-07T01:24:13.096Z,63.70
2022-12-07T01:26:43.285Z,63.70
2022-12-07T01:29:11.957Z,63.70
2022-12-07T01:31:40.543Z,63.60
2022-12-07T01:34:09.142Z,63.70
2022-12-07T01:36:38.833Z,63.60
2022-12-07T01:39:11.191Z,63.50
2022-12-07T01:41:44.616Z,63.40
2022-12-07T01:44:25.495Z,63.40
2022-12-07T01:46:56.825Z,63.40
2022-12-07T01:49:32.530Z,63.40
2022-12-07T01:52:19.418Z,63.40
2022-12-07T01:54:49.422Z,63.40
2022-12-07T01:57:21.785Z,63.40
2022-12-07T01:59:53.574Z,63.40
2022-12-07T02:02:27.119Z,63.40
2022-12-07T02:04:58.412Z,63.40
2022-12-07T02:07:29.278Z,63.30
2022-12-07T02:09:57.909Z,63.30
2022-12-07T02:12:28.351Z,63.10
2022-12-07T02:14:57.010Z,63.10
2022-12-07T02:17:34.426Z,62.80
2022-12-07T02:20:25.996Z,62.70
2022-12-07T02:23:33.559Z,62.70
2022-12-07T02:26:50.817Z,62.60
2022-12-07T02:29:25.405Z,62.50
2022-12-07T02:32:05.873Z,62.50
2022-12-07T02:34:45.807Z,62.40
2022-12-07T02:37:27.431Z,62.30
2022-12-07T02:40:01.029Z,62.30
2022-12-07T02:42:35.975Z,62.30
2022-12-07T02:45:08.060Z,62.30
2022-12-07T02:47:38.251Z,62.30
2022-12-07T02:50:09.728Z,62.20
2022-12-07T02:52:38.595Z,62.30
2022-12-07T02:55:09.341Z,62.20
2022-12-07T02:57:54.989Z,62.30
2022-12-07T03:00:25.226Z,62.30
2022-12-07T03:02:59.767Z,62.30
2022-12-07T03:05:48.603Z,62.20
2022-12-07T03:08:25.760Z,62.00
2022-12-07T03:11:00.248Z,62.00
2022-12-07T03:13:41.579Z,62.10
2022-12-07T03:16:17.510Z,62.20
2022-12-07T03:18:52.269Z,62.30
2022-12-07T03:21:25.063Z,62.40
2022-12-07T03:23:58.550Z,62.50
2022-12-07T03:26:34.495Z,62.50
2022-12-07T03:29:08.971Z,62.50
2022-12-07T03:31:43.596Z,62.50
2022-12-07T03:34:17.173Z,62.50
2022-12-07T03:36:52.581Z,62.40
2022-12-07T03:39:29.055Z,62.40
2022-12-07T03:41:59.486Z,62.20
2022-12-07T03:44:28.820Z,62.10
2022-12-07T03:47:06.494Z,62.00
2022-12-07T03:49:44.302Z,61.90
2022-12-07T03:52:21.027Z,61.90
2022-12-07T03:54:56.945Z,62.00
2022-12-07T03:57:27.921Z,62.00
2022-12-07T03:59:58.320Z,62.10
2022-12-07T04:02:30.149Z,62.20
2022-12-07T04:04:59.209Z,62.10
2022-12-07T04:07:28.055Z,62.10
2022-12-07T04:09:56.904Z,62.10
2022-12-07T04:12:25.753Z,62.00
2022-12-07T04:14:54.377Z,62.10
2022-12-07T04:17:22.970Z,62.10
2022-12-07T04:19:53.014Z,62.20
2022-12-07T04:22:21.571Z,62.30
2022-12-07T04:24:50.147Z,62.30
2022-12-07T04:27:18.827Z,62.40
2022-12-07T04:29:47.366Z,62.40
2022-12-07T04:32:15.932Z,62.20
2022-12-07T04:34:44.538Z,62.20
2022-12-07T04:37:14.463Z,62.20
2022-12-07T04:39:44.821Z,62.10
2022-12-07T04:42:14.031Z,62.20
2022-12-07T04:44:42.745Z,62.20
2022-12-07T04:47:11.376Z,62.30
2022-12-07T04:49:40.040Z,62.30
2022-12-07T04:52:08.603Z,62.30
2022-12-07T04:54:38.552Z,62.30
2022-12-07T04:57:07.228Z,62.30
2022-12-07T04:59:37.139Z,62.30
2022-12-07T05:02:07.582Z,62.50
2022-12-07T05:04:36.155Z,62.40
2022-12-07T05:07:04.753Z,62.40
2022-12-07T05:09:33.392Z,62.50
2022-12-07T05:12:03.333Z,62.50
2022-12-07T05:14:31.870Z,62.50
2022-12-07T05:17:00.476Z,62.50
2022-12-07T05:19:29.102Z,62.50
2022-12-07T05:21:58.067Z,62.50
2022-12-07T05:24:26.626Z,62.50
2022-12-07T05:26:55.215Z,62.50
2022-12-07T05:29:25.156Z,62.50
2022-12-07T05:31:53.908Z,62.50
2022-12-07T05:34:22.686Z,62.50
2022-12-07T05:36:51.471Z,62.60
2022-12-07T05:39:20.047Z,62.60
2022-12-07T05:42:05.959Z,62.70
2022-12-07T05:44:35.934Z,62.60
2022-12-07T05:47:04.523Z,62.70
2022-12-07T05:49:33.174Z,62.80
2022-12-07T05:52:01.990Z,62.80
2022-12-07T05:54:30.642Z,62.90
2022-12-07T05:56:59.345Z,62.90
2022-12-07T05:59:28.735Z,63.00
2022-12-07T06:02:01.202Z,63.00
2022-12-07T06:04:32.590Z,63.00
2022-12-07T06:07:01.406Z,62.90
2022-12-07T06:09:31.165Z,62.90
2022-12-07T06:12:17.571Z,62.90
2022-12-07T06:14:46.669Z,63.00
2022-12-07T06:17:17.308Z,63.20
2022-12-07T06:19:45.963Z,63.20
2022-12-07T06:22:15.025Z,63.10
2022-12-07T06:24:43.669Z,63.10
2022-12-07T06:27:12.895Z,63.30
2022-12-07T06:29:41.470Z,63.30
2022-12-07T06:32:10.203Z,63.30
2022-12-07T06:34:40.914Z,63.30
2022-12-07T06:37:09.722Z,63.30
2022-12-07T06:39:38.324Z,63.30
2022-12-07T06:42:07.038Z,63.40
2022-12-07T06:44:35.587Z,63.40
2022-12-07T06:47:38.944Z,63.30
2022-12-07T06:49:55.563Z,63.40
2022-12-07T06:52:24.292Z,63.40
2022-12-07T06:54:52.834Z,63.40
2022-12-07T06:57:21.738Z,63.50
2022-12-07T06:59:50.290Z,63.50
2022-12-07T07:02:19.061Z,63.50
2022-12-07T07:04:47.763Z,63.60
2022-12-07T07:07:17.716Z,63.60
2022-12-07T07:09:46.255Z,63.60
2022-12-07T07:12:15.616Z,63.70
2022-12-07T07:14:44.389Z,63.60
2022-12-07T07:17:12.966Z,63.70
2022-12-07T07:19:41.652Z,63.70
2022-12-07T07:22:10.241Z,63.70
2022-12-07T07:24:40.143Z,63.80
2022-12-07T07:27:09.949Z,63.90
2022-12-07T07:29:39.733Z,64.10
2022-12-07T07:32:09.158Z,64.10
2022-12-07T07:34:37.840Z,64.10
2022-12-07T07:37:06.411Z,64.10
2022-12-07T07:39:34.979Z,64.10
2022-12-07T07:42:05.143Z,64.10
2022-12-07T07:44:35.664Z,64.00
2022-12-07T07:47:04.839Z,64.20
2022-12-07T07:49:33.348Z,64.40
2022-12-07T07:52:01.906Z,64.30
2022-12-07T07:54:30.536Z,64.30
2022-12-07T07:56:59.132Z,64.40
2022-12-07T07:59:29.139Z,64.40
2022-12-07T08:01:57.847Z,64.40
2022-12-07T08:04:27.114Z,64.30
2022-12-07T08:06:55.747Z,64.60
2022-12-07T08:09:24.369Z,64.40
2022-12-07T08:11:52.909Z,64.50
2022-12-07T08:14:21.482Z,64.50
2022-12-07T08:16:51.506Z,64.50
2022-12-07T08:19:20.102Z,64.50
2022-12-07T08:21:49.009Z,64.40
2022-12-07T08:24:18.003Z,64.50
2022-12-07T08:26:46.567Z,64.50
2022-12-07T08:29:15.071Z,64.50
2022-12-07T08:31:43.778Z,64.50
2022-12-07T08:34:15.061Z,64.50
2022-12-07T08:36:43.705Z,64.50
2022-12-07T08:42:01.096Z,64.60
2022-12-07T08:44:29.653Z,64.40
2022-12-07T08:47:02.095Z,64.40
2022-12-07T08:50:16.252Z,64.40
2022-12-07T08:52:45.494Z,64.50
2022-12-07T08:55:14.407Z,64.40
2022-12-07T08:57:43.907Z,64.50
2022-12-07T09:00:14.447Z,64.30
2022-12-07T09:02:43.049Z,64.30
2022-12-07T09:05:16.458Z,64.10
2022-12-07T09:07:49.116Z,64.10
2022-12-07T09:10:17.759Z,64.00
2022-12-07T09:12:46.395Z,64.00
2022-12-07T09:15:14.974Z,64.20
2022-12-07T09:17:43.544Z,64.10
2022-12-07T09:20:14.754Z,64.10
2022-12-07T09:22:43.436Z,64.10
2022-12-07T09:25:12.041Z,64.30
2022-12-07T09:27:40.622Z,64.10
2022-12-07T09:30:10.055Z,64.10
2022-12-07T09:32:38.939Z,64.20
2022-12-07T09:35:08.355Z,64.20
2022-12-07T09:37:38.277Z,64.10
2022-12-07T09:40:08.822Z,64.10
2022-12-07T09:42:41.106Z,64.10
2022-12-07T09:45:16.595Z,64.00
2022-12-07T09:47:45.660Z,64.00
2022-12-07T09:50:19.140Z,63.90
2022-12-07T09:52:50.200Z,63.90
2022-12-07T09:55:26.580Z,63.90
2022-12-07T09:57:55.749Z,63.90
2022-12-07T10:00:26.377Z,63.80
2022-12-07T10:02:59.260Z,63.90
2022-12-07T10:05:35.018Z,63.90
2022-12-07T10:08:05.090Z,63.90
2022-12-07T10:10:39.687Z,63.90
2022-12-07T10:13:11.101Z,64.00
2022-12-07T10:15:49.990Z,63.90
2022-12-07T10:18:31.764Z,64.00
2022-12-07T10:21:14.734Z,64.10
2022-12-07T10:24:01.909Z,64.00
2022-12-07T10:26:35.492Z,63.90
2022-12-07T10:29:21.010Z,63.90
2022-12-07T10:31:56.978Z,63.80
2022-12-07T10:34:29.981Z,63.60
2022-12-07T10:37:18.560Z,63.60
2022-12-07T10:39:51.163Z,63.60
2022-12-07T10:42:22.858Z,63.60
2022-12-07T10:44:52.783Z,63.60
2022-12-07T10:47:36.147Z,63.70
2022-12-07T10:50:34.918Z,63.60
2022-12-07T10:53:45.750Z,63.50
2022-12-07T10:57:05.034Z,63.40
2022-12-07T11:00:04.673Z,63.40
2022-12-07T11:03:20.532Z,63.40
2022-12-07T11:05:58.497Z,63.50
2022-12-07T11:08:45.048Z,63.50
2022-12-07T11:11:20.533Z,63.40
2022-12-07T11:13:58.906Z,63.30
2022-12-07T11:16:49.731Z,63.40
2022-12-07T11:19:37.412Z,63.20
2022-12-07T11:22:13.495Z,62.90
2022-12-07T11:24:52.825Z,62.90
2022-12-07T11:27:32.371Z,62.90
2022-12-07T11:30:15.768Z,62.80
2022-12-07T11:33:05.332Z,62.90
2022-12-07T11:35:47.150Z,62.80
2022-12-07T11:38:22.210Z,62.90
2022-12-07T11:41:14.308Z,62.80
2022-12-07T11:44:07.053Z,62.80
2022-12-07T11:46:49.491Z,62.80
2022-12-07T11:49:29.502Z,62.80
2022-12-07T11:52:02.811Z,62.90
2022-12-07T11:54:37.831Z,62.80
2022-12-07T11:57:19.984Z,62.80
2022-12-07T11:59:52.675Z,62.90
2022-12-07T12:02:28.549Z,62.80
2022-12-07T12:05:05.882Z,62.80
2022-12-07T12:33:43.734Z,62.30
2022-12-07T12:44:10.153Z,62.40
2022-12-07T12:47:52.069Z,62.40
2022-12-07T13:05:13.026Z,62.30
2022-12-07T13:07:59.366Z,62.20
2022-12-07T13:10:46.631Z,62.20
2022-12-07T13:13:38.436Z,62.20
2022-12-07T13:16:43.698Z,62.20
2022-12-07T13:20:02.825Z,62.30
2022-12-07T13:22:53.013Z,62.10
2022-12-07T13:25:32.593Z,62.10
2022-12-07T13:28:12.127Z,62.20
2022-12-07T13:30:50.160Z,62.00
2022-12-07T13:33:21.344Z,62.00
2022-12-07T13:35:57.631Z,62.00
2022-12-07T13:38:31.076Z,61.90
2022-12-07T13:41:15.262Z,62.00
2022-12-07T13:43:51.879Z,62.00
2022-12-07T13:46:28.518Z,61.80
2022-12-07T13:48:58.000Z,62.60
2022-12-07T13:51:30.581Z,61.80
2022-12-07T13:54:08.934Z,61.80
2022-12-07T13:56:40.516Z,61.80
2022-12-07T13:59:16.829Z,61.70
2022-12-07T14:01:49.163Z,61.60
2022-12-07T14:04:37.159Z,61.60
2022-12-07T14:07:26.242Z,61.60
2022-12-07T14:10:00.961Z,61.60
2022-12-07T14:12:31.925Z,62.40
2022-12-07T14:15:02.714Z,61.40
2022-12-07T14:17:31.639Z,61.40
2022-12-07T14:20:01.411Z,62.20
2022-12-07T14:22:36.000Z,61.60
2022-12-07T14:25:23.881Z,61.50
2022-12-07T14:27:57.482Z,61.60
2022-12-07T14:30:29.091Z,61.70
2022-12-07T14:33:01.447Z,61.60
2022-12-07T14:35:31.093Z,61.60
2022-12-07T14:38:01.382Z,61.60
2022-12-07T14:40:32.415Z,61.40
2022-12-07T14:43:05.566Z,61.40
2022-12-07T14:45:34.263Z,61.40
2022-12-07T14:53:55.077Z,61.40
2022-12-07T14:56:25.959Z,61.40
2022-12-07T14:58:54.569Z,61.40
2022-12-07T15:01:23.147Z,61.30
2022-12-07T15:03:52.075Z,61.30
2022-12-07T15:06:20.966Z,61.20
2022-12-07T15:08:50.884Z,61.30
2022-12-07T15:11:20.546Z,61.30
2022-12-07T15:14:06.361Z,61.50
2022-12-07T15:16:59.551Z,61.40
2022-12-07T15:19:29.430Z,61.30
2022-12-07T15:22:00.865Z,61.40
2022-12-07T15:24:31.579Z,61.50
2022-12-07T15:27:00.211Z,61.40
2022-12-07T15:29:29.018Z,61.30
2022-12-07T15:31:58.488Z,61.40
2022-12-07T15:34:34.833Z,61.10
2022-12-07T15:37:06.674Z,61.10
2022-12-07T15:39:38.303Z,61.20
2022-12-07T15:42:07.164Z,61.10
2022-12-07T15:44:53.304Z,61.10
2022-12-07T15:47:21.920Z,61.10
2022-12-07T15:49:50.945Z,61.30
2022-12-07T15:52:20.225Z,61.20
2022-12-07T15:54:50.235Z,61.30
2022-12-07T15:57:24.961Z,61.30
2022-12-07T15:59:54.508Z,61.30
2022-12-07T16:02:23.742Z,61.20
2022-12-07T16:04:52.421Z,61.20
2022-12-07T16:07:21.325Z,61.20
2022-12-07T16:09:51.690Z,61.20
2022-12-07T16:12:20.711Z,61.20
2022-12-07T16:14:49.303Z,61.10
2022-12-07T16:17:17.950Z,61.20
2022-12-07T16:19:46.507Z,61.20
2022-12-07T16:22:15.064Z,61.20
2022-12-07T16:24:43.875Z,61.20
2022-12-07T16:27:13.858Z,61.10
2022-12-07T16:29:42.544Z,61.20
2022-12-07T16:32:11.727Z,61.20
2022-12-07T16:34:41.538Z,61.20
2022-12-07T16:37:10.095Z,61.30
2022-12-07T16:39:38.739Z,61.40
2022-12-07T16:42:07.448Z,61.40
2022-12-07T16:44:37.428Z,61.50
2022-12-07T16:47:06.362Z,61.40
2022-12-07T16:49:34.900Z,61.30
2022-12-07T16:52:19.148Z,61.40
2022-12-07T16:54:48.553Z,61.40
2022-12-07T16:57:22.297Z,62.00
2022-12-07T16:59:53.550Z,62.00
2022-12-07T17:02:22.787Z,62.10
2022-12-07T17:04:51.373Z,62.00
2022-12-07T17:07:20.034Z,61.80
2022-12-07T17:09:48.670Z,61.60
2022-12-07T17:12:17.291Z,61.60
2022-12-07T17:15:03.809Z,61.50
2022-12-07T17:17:34.019Z,61.50
2022-12-07T17:20:02.661Z,61.40
2022-12-07T17:22:31.234Z,61.40
2022-12-07T17:24:59.992Z,61.40
2022-12-07T17:27:28.821Z,61.40
2022-12-07T17:29:57.404Z,61.40
2022-12-07T17:32:25.945Z,61.40
2022-12-07T17:34:55.918Z,61.40
2022-12-07T17:37:24.668Z,61.30
2022-12-07T17:39:54.668Z,61.30
2022-12-07T17:42:40.059Z,61.30
2022-12-07T17:45:12.357Z,61.20
2022-12-07T17:47:41.633Z,60.80
2022-12-07T17:50:12.643Z,61.00
2022-12-07T17:52:58.850Z,61.10
2022-12-07T17:55:27.452Z,61.20
2022-12-07T17:57:56.046Z,61.20
2022-12-07T18:00:24.920Z,61.10
2022-12-07T18:02:53.569Z,61.00
2022-12-07T18:05:23.687Z,61.90
2022-12-07T18:07:53.074Z,61.20
2022-12-07T18:10:21.950Z,61.30
2022-12-07T18:12:52.349Z,61.20
2022-12-07T18:15:21.283Z,61.20
2022-12-07T18:17:52.022Z,61.20
2022-12-07T18:20:20.698Z,61.30
2022-12-07T18:22:50.670Z,61.30
2022-12-07T18:25:19.410Z,61.40
2022-12-07T18:27:47.982Z,61.50
2022-12-07T18:30:16.956Z,61.40
2022-12-07T18:32:45.549Z,61.50
2022-12-07T18:35:14.096Z,61.60
2022-12-07T18:37:42.919Z,61.50
2022-12-07T18:40:14.995Z,61.50
2022-12-07T18:42:43.548Z,61.50
2022-12-07T18:45:13.130Z,61.50
2022-12-07T18:47:41.776Z,61.60
2022-12-07T18:50:11.527Z,61.50
2022-12-07T18:52:40.191Z,61.50
2022-12-07T18:55:09.801Z,61.50
2022-12-07T18:57:39.819Z,61.40
2022-12-07T19:00:10.268Z,61.40
2022-12-07T19:02:38.915Z,61.40
2022-12-07T19:05:08.038Z,61.40
2022-12-07T19:07:36.967Z,61.40
2022-12-07T19:10:08.170Z,61.40
2022-12-07T19:12:40.400Z,61.40
2022-12-07T19:15:13.211Z,61.50
2022-12-07T19:17:42.523Z,61.50
2022-12-07T19:20:16.110Z,61.50
2022-12-07T19:22:44.811Z,61.50
2022-12-07T19:25:13.388Z,61.50
2022-12-07T19:27:41.955Z,61.50
2022-12-07T19:30:13.409Z,61.50
2022-12-07T19:32:41.959Z,61.50
2022-12-07T19:35:11.026Z,61.50
2022-12-07T19:37:39.708Z,61.50
2022-12-07T19:40:10.094Z,61.50
2022-12-07T19:42:38.730Z,61.60
2022-12-07T19:45:08.483Z,61.50
2022-12-07T19:47:38.394Z,61.90
2022-12-07T19:50:08.749Z,62.00
2022-12-07T19:52:37.300Z,62.00
2022-12-07T19:55:06.896Z,61.80
2022-12-07T19:57:35.501Z,61.70
2022-12-07T20:00:05.278Z,61.60
2022-12-07T20:02:34.287Z,61.50
2022-12-07T20:05:06.303Z,61.50
2022-12-07T20:07:39.047Z,61.50
2022-12-07T20:10:09.916Z,61.40
2022-12-07T20:12:55.995Z,61.40
2022-12-07T20:15:24.585Z,61.40
2022-12-07T20:17:53.212Z,61.30
2022-12-07T20:20:23.129Z,61.40
2022-12-07T20:22:51.685Z,61.30
2022-12-07T20:25:20.233Z,61.30
2022-12-07T20:27:48.835Z,61.30
2022-12-07T20:30:17.622Z,61.30
2022-12-07T20:32:46.144Z,61.30
2022-12-07T20:35:14.657Z,61.30
2022-12-07T20:37:44.632Z,61.30
2022-12-07T20:40:13.881Z,61.20
2022-12-07T20:42:42.496Z,61.30
2022-12-07T20:45:12.310Z,61.40
2022-12-07T20:47:40.832Z,61.40
2022-12-07T20:50:10.547Z,62.10
2022-12-07T20:52:39.194Z,61.40
2022-12-07T20:55:09.859Z,61.30
2022-12-07T20:57:38.409Z,61.40
2022-12-07T21:00:10.401Z,61.40
2022-12-07T21:02:41.292Z,61.40
2022-12-07T21:05:10.744Z,61.40
2022-12-07T21:07:39.723Z,61.40
2022-12-07T21:10:10.706Z,61.30
2022-12-07T21:12:39.486Z,61.30
2022-12-07T21:15:09.979Z,61.30
2022-12-07T21:17:38.927Z,61.30
2022-12-07T21:20:09.553Z,61.30
2022-12-07T21:22:38.612Z,61.40
2022-12-07T21:25:09.783Z,61.40
2022-12-07T21:27:38.398Z,61.40
2022-12-07T21:30:09.144Z,61.40
2022-12-07T21:32:37.676Z,61.40
2022-12-07T21:35:07.170Z,61.40
2022-12-07T21:37:35.821Z,61.40
2022-12-07T21:40:04.975Z,61.30
2022-12-07T21:42:34.906Z,61.40
2022-12-07T21:45:03.864Z,61.30
2022-12-07T21:47:33.862Z,61.40
2022-12-07T21:50:02.423Z,61.40
2022-12-07T21:52:31.016Z,61.40
2022-12-07T21:54:59.691Z,61.50
2022-12-07T21:57:28.203Z,61.50
2022-12-07T21:59:58.200Z,61.50
2022-12-07T22:02:26.802Z,61.50
2022-12-07T22:04:55.618Z,61.40
2022-12-07T22:07:24.651Z,61.40
2022-12-07T22:09:53.218Z,61.30
2022-12-07T22:12:21.768Z,61.40
2022-12-07T22:15:07.439Z,61.30
2022-12-07T22:17:37.844Z,61.30
2022-12-07T22:20:08.552Z,61.40
2022-12-07T22:22:37.111Z,61.50
2022-12-07T22:25:06.837Z,61.50
2022-12-07T22:27:35.745Z,61.50
2022-12-07T22:30:04.616Z,61.40
2022-12-07T22:32:48.406Z,61.60
2022-12-07T22:35:19.300Z,61.40
2022-12-07T22:37:47.835Z,61.50
2022-12-07T22:40:17.227Z,61.50
2022-12-07T22:42:45.798Z,61.50
2022-12-07T22:45:14.326Z,61.40
2022-12-07T22:47:42.844Z,61.30
2022-12-07T22:50:12.438Z,61.30
2022-12-07T22:52:42.426Z,61.30
2022-12-07T22:55:11.832Z,61.30
2022-12-07T22:57:40.415Z,61.30
2022-12-07T23:00:11.514Z,61.30
2022-12-07T23:02:40.197Z,61.20
2022-12-07T23:05:10.026Z,61.30
2022-12-07T23:07:38.922Z,61.20
2022-12-07T23:10:10.808Z,61.20
2022-12-07T23:12:57.009Z,61.20
2022-12-07T23:15:25.597Z,61.20
2022-12-07T23:17:54.215Z,61.30
2022-12-07T23:20:22.762Z,61.20
2022-12-07T23:22:51.295Z,61.20
2022-12-07T23:25:21.358Z,61.20
2022-12-07T23:27:50.216Z,61.20
2022-12-07T23:30:19.100Z,61.20
2022-12-07T23:32:47.922Z,61.20
2022-12-07T23:35:16.554Z,61.20
2022-12-07T23:37:45.066Z,61.20
2022-12-07T23:40:13.826Z,61.20
2022-12-07T23:42:43.725Z,61.20
2022-12-07T23:45:13.238Z,61.20
2022-12-07T23:47:41.847Z,61.20
2022-12-07T23:50:11.305Z,61.20
2022-12-07T23:52:39.854Z,61.20
2022-12-07T23:55:09.932Z,61.20
2022-12-07T23:57:38.459Z,61.20
